Latest Coastal Weather Observations for Montague Island

IDN60701

Issued at 6:31 am EST Sunday 20 August 2017 (issued every 10 minutes, with the page automatically refreshed every 10 minutes)

About coastal observations | Map of coastal stations | Coastal observations for NSW | Marine services | Other Formats
Station Details ID: 069017 Name: MONTAGUE ISLAND LIGHTHOUSE Lat: -36.25 Lon: 150.23 Height: 52.0 m
Data from the previous 72 hours. | See also: Recent months at Montague Island
Date/Time
EST
Temp
°C
Wind Pressure Rain since
9am
mm
Weather Cloud Vis
km
Sea
Height
m
Swell
Dir  Spd
kts
Gust
kts
hPa Trend Height
m
Period
s
Dir
20/06:30am 9.1 SW 14 17 1023.1 - 0.0 - - - - - - -
20/06:00am 9.0 SW 15 19 1022.9 - 0.0 - - - - - - -
20/05:30am 9.0 SW 16 20 1022.7 - 0.0 - - - - - - -
20/05:00am 8.9 WSW 15 19 1022.7 - 0.0 - - - - - - -
20/04:30am 9.0 WSW 15 20 1022.6 - 0.0 - - - - - - -
20/04:00am 9.0 WSW 14 17 1022.5 - 0.0 - - - - - - -
20/03:30am 8.8 SW 15 18 1022.5 - 0.0 - - - - - - -
20/03:00am 8.7 SW 16 19 1022.4 - 0.0 - - - - - - -
20/02:30am 8.9 SW 15 19 1022.3 - 0.0 - - - - - - -
20/02:00am 8.8 SW 16 19 1022.3 - 0.0 - - - - - - -
20/01:30am 9.0 SW 17 21 1022.3 - 0.0 - - - - - - -
20/01:00am 9.0 SW 17 21 1022.3 - 0.0 - - - - - - -
20/12:30am 9.2 SW 16 21 1022.4 - 0.0 - - - - - - -
20/12:00am 9.1 WSW 16 19 1022.5 - 0.0 - - - - - - -
 
Date/Time
EST
Temp
°C
Wind Pressure Rain since
9am
mm
Weather Cloud Vis
km
Sea
Height
m
Swell
Dir  Spd
kts
Gust
kts
hPa Trend Height
m
Period
s
Dir
19/11:30pm 9.2 WSW 16 20 1022.5 - 0.0 - - - - - - -
19/11:00pm 9.1 WSW 15 18 1022.8 - 0.0 - - - - - - -
19/10:30pm 9.1 WSW 15 19 1022.8 - 0.0 - - - - - - -
19/10:00pm 9.2 WSW 16 19 1022.8 - 0.0 - - - - - - -
19/09:30pm 9.3 WSW 16 20 1022.8 - 0.0 - - - - - - -
19/09:00pm 9.7 SW 20 25 1022.7 - 0.0 - - - - - - -
19/08:30pm 9.9 SW 20 25 1022.6 - 0.0 - - - - - - -
19/08:00pm 10.1 SW 22 27 1022.1 - 0.0 - - - - - - -
19/07:30pm 10.4 SW 20 25 1021.9 - 0.0 - - - - - - -
19/07:00pm 10.7 SW 18 23 1021.8 - 0.0 - - - - - - -
19/06:30pm 11.1 SW 19 24 1021.4 - 0.0 - - - - - - -
19/06:00pm 11.2 SW 17 23 1021.1 - 0.0 - - - - - - -
19/05:30pm 11.5 SW 17 21 1020.7 - 0.0 - - - - - - -
19/05:00pm 11.3 SSW 17 23 1020.4 - 0.0 - - - - - - -
19/04:30pm 11.4 SSW 16 19 1020.3 - 0.0 - - - - - - -
19/04:00pm 11.2 SSW 16 21 1019.9 - 0.0 - - - - - - -
19/03:30pm 11.7 S 17 20 1019.5 - 0.0 - - - - - - -
19/03:00pm 11.5 S 19 23 1019.2 - 0.0 - - - - - - -
19/02:30pm 12.3 SSW 19 25 1018.8 - 0.0 - - - - - - -
19/02:00pm 12.1 SSW 20 26 1018.3 - 0.0 - - - - - - -
19/01:30pm 12.1 SSW 19 24 1018.2 - 0.0 - - - - - - -
19/01:00pm 12.3 SSW 18 22 1018.3 - 0.0 - - - - - - -
19/12:30pm 11.8 SSW 20 25 1018.2 - 0.0 - - - - - - -
19/12:00pm 12.3 SW 21 26 1018.1 - 0.0 - - - - - - -
19/11:30am 12.6 SSW 19 24 1018.3 - 0.0 - - - - - - -
19/11:00am 11.8 SW 21 26 1018.1 - 0.0 - - - - - - -
19/10:30am 12.0 SW 17 25 1018.1 - 0.0 - - - - - - -
19/10:00am 11.2 SW 22 28 1017.9 - 0.0 - - - - - - -
19/09:30am 11.4 SW 19 27 1017.7 - 0.0 - - - - - - -
19/09:00am 10.4 SW 21 29 1017.2 - 0.0 - - - - - - -
19/08:30am 10.3 SW 19 24 1017.0 - 0.0 - - - - - - -
19/08:00am 9.9 SW 17 21 1016.7 - 0.0 - - - - - - -
19/07:30am 9.6 SW 17 21 1016.2 - 0.0 - - - - - - -
19/07:00am 9.5 WSW 15 19 1015.8 - 0.0 - - - - - - -
19/06:30am 9.3 SW 18 23 1015.1 - 0.0 - - - - - - -
19/06:00am 9.4 SW 18 22 1014.7 - 0.0 - - - - - - -
19/05:30am 9.6 SW 20 24 1014.2 - 0.0 - - - - - - -
19/05:00am 9.6 SW 20 25 1014.2 - 0.0 - - - - - - -
19/04:30am 9.9 SW 20 24 1013.4 - 0.0 - - - - - - -
19/04:00am 9.9 SW 23 28 1012.8 - 0.0 - - - - - - -
19/03:30am 10.2 SW 19 23 1012.7 - 0.0 - - - - - - -
19/03:00am 10.0 SW 17 21 1012.3 - 0.0 - - - - - - -
19/02:30am 10.3 SW 18 23 1012.3 - 0.0 - - - - - - -
19/02:00am 10.5 SW 23 28 1012.3 - 0.0 - - - - - - -
19/01:30am 10.4 SW 25 32 1011.8 - 0.0 - - - - - - -
19/01:26am 10.5 SW 24 31 1012.0 - 0.0 - - - - - - -
19/01:00am 10.4 WSW 16 19 1011.9 - 0.0 - - - - - - -
19/12:30am 10.5 WSW 10 16 1011.5 - 0.0 - - - - - - -
19/12:00am 10.2 W 7 11 1011.3 - 0.0 - - - - - - -
 
Date/Time
EST
Temp
°C
Wind Pressure Rain since
9am
mm
Weather Cloud Vis
km
Sea
Height
m
Swell
Dir  Spd
kts
Gust
kts
hPa Trend Height
m
Period
s
Dir
18/11:30pm 10.7 WSW 10 16 1011.5 - 0.0 - - - - - - -
18/11:00pm 10.7 SW 11 14 1011.3 - 0.0 - - - - - - -
18/10:30pm 10.9 WSW 12 16 1011.1 - 0.0 - - - - - - -
18/10:00pm 11.3 WSW 17 22 1011.0 - 0.0 - - - - - - -
18/09:30pm 11.2 SW 13 19 1010.7 - 0.0 - - - - - - -
18/09:00pm 11.0 WSW 10 15 1010.8 - 0.0 - - - - - - -
18/08:30pm 11.1 WSW 12 18 1010.3 - 0.0 - - - - - - -
18/08:00pm 11.5 WSW 17 23 1009.8 - 0.0 - - - - - - -
18/07:30pm 11.9 SW 16 21 1009.8 - 0.0 - - - - - - -
18/07:00pm 12.4 SW 22 26 1008.9 - 0.0 - - - - - - -
18/06:30pm 12.7 SW 17 23 1008.0 - 0.0 - - - - - - -
18/06:00pm 13.1 SW 15 19 1007.3 - 0.0 - - - - - - -
18/05:30pm 13.8 SW 13 17 1006.8 - 0.0 - - - - - - -
18/05:00pm 14.5 SW 13 18 1005.9 - 0.0 - - - - - - -
18/04:30pm 14.9 SW 11 15 1005.3 - 0.0 - - - - - - -
18/04:00pm 15.0 SW 13 15 1004.7 - 0.0 - - - - - - -
18/03:30pm 15.6 SW 19 27 1004.1 - 0.0 - - - - - - -
18/03:23pm 16.0 WSW 17 27 1003.9 - 0.0 - - - - - - -
18/03:00pm 16.2 WSW 16 23 1003.9 - 0.0 - - - - - - -
18/02:30pm 16.4 WSW 20 23 1003.3 - 0.0 - - - - - - -
18/02:00pm 16.3 WSW 12 18 1003.4 - 0.0 - - - - - - -
18/01:30pm 16.0 WSW 18 28 1003.1 - 0.0 - - - - - - -
18/01:25pm 15.7 WSW 16 28 1003.0 - 0.0 - - - - - - -
18/01:00pm 15.4 WSW 17 21 1003.1 - 0.0 - - - - - - -
18/12:30pm 15.4 WSW 17 24 1003.2 - 0.0 - - - - - - -
18/12:00pm 15.3 WSW 13 19 1003.5 - 0.0 - - - - - - -
18/11:30am 16.0 W 13 20 1003.6 - 0.0 - - - - - - -
18/11:00am 17.1 W 7 13 1003.8 - 0.0 - - - - - - -
18/10:30am 16.2 W 10 14 1004.0 - 0.0 - - - - - - -
18/10:00am 15.1 W 12 17 1003.9 - 0.0 - - - - - - -
18/09:30am 14.6 W 12 17 1003.8 - 0.0 - - - - - - -
18/09:00am 14.1 WSW 12 15 1003.8 - 0.0 - - - - - - -
18/08:30am 13.3 WSW 5 10 1004.0 - 0.0 - - - - - - -
18/08:00am 13.0 W 8 12 1003.7 - 0.0 - - - - - - -
18/07:30am 12.2 W 11 13 1003.2 - 0.0 - - - - - - -
18/07:00am 11.7 W 14 18 1002.7 - 0.0 - - - - - - -
18/06:30am 11.6 W 20 25 1001.8 - 0.0 - - - - - - -
18/06:00am 11.7 W 19 26 1001.6 - 0.0 - - - - - - -
18/05:30am 11.8 W 18 23 1001.6 - 0.0 - - - - - - -
18/05:00am 12.0 W 19 24 1001.3 - 0.0 - - - - - - -
18/04:30am 11.9 W 19 25 1001.2 - 0.0 - - - - - - -
18/04:00am 11.9 W 15 19 1001.3 - 0.0 - - - - - - -
18/03:30am 11.8 W 15 21 1001.6 - 0.0 - - - - - - -
18/03:00am 11.8 W 13 19 1001.7 - 0.0 - - - - - - -
18/02:30am 12.3 W 16 23 1001.7 - 0.0 - - - - - - -
18/02:00am 12.7 W 14 23 1001.7 - 0.0 - - - - - - -
18/01:30am 12.8 W 14 22 1001.8 - 0.0 - - - - - - -
18/01:00am 13.1 WNW 12 18 1002.1 - 0.0 - - - - - - -
18/12:30am 13.5 WNW 12 17 1002.6 - 0.0 - - - - - - -
18/12:00am 13.3 WNW 10 15 1003.0 - 0.0 - - - - - - -
 
Date/Time
EST
Temp
°C
Wind Pressure Rain since
9am
mm
Weather Cloud Vis
km
Sea
Height
m
Swell
Dir  Spd
kts
Gust
kts
hPa Trend Height
m
Period
s
Dir
17/11:30pm 13.4 WNW 9 12 1003.2 - 0.0 - - - - - - -
17/11:00pm 12.8 NW 4 7 1003.4 - 0.0 - - - - - - -
17/10:30pm 12.7 W 4 6 1003.7 - 0.0 - - - - - - -
17/10:00pm 13.3 W 7 12 1004.0 - 0.0 - - - - - - -
17/09:30pm 13.6 W 9 12 1004.2 - 0.0 - - - - - - -
17/09:00pm 13.7 WNW 7 11 1004.2 - 0.0 - - - - - - -
17/08:30pm 13.6 W 9 13 1003.8 - 0.0 - - - - - - -
17/08:00pm 13.5 WNW 8 11 1003.5 - 0.0 - - - - - - -
17/07:30pm 13.7 WNW 13 17 1003.4 - 0.0 - - - - - - -
17/07:00pm 14.1 W 14 17 1003.4 - 0.0 - - - - - - -
17/06:30pm 14.8 W 20 24 1002.5 - 0.0 - - - - - - -
17/06:16pm 15.6 W 19 27 1001.9 - 0.0 - - - - - - -
17/06:00pm 16.3 W 14 17 1001.8 - 0.0 - - - - - - -
17/05:30pm 16.9 W 15 19 1001.2 - 0.0 - - - - - - -
17/05:00pm 17.6 WNW 18 23 1000.7 - 0.0 - - - - - - -
17/04:30pm 18.1 W 22 29 1000.0 - 0.0 - - - - - - -
17/04:00pm 18.4 W 19 26 1000.2 - 0.0 - - - - - - -
17/03:30pm 18.9 WNW 19 28 999.8 - 0.0 - - - - - - -
17/03:00pm 18.9 WNW 18 25 999.7 - 0.0 - - - - - - -
17/02:45pm 18.8 WNW 18 28 999.8 - 0.0 - - - - - - -
17/02:30pm 18.9 WNW 22 29 999.9 - 0.0 - - - - - - -
17/02:00pm 18.8 WNW 21 33 999.6 - 0.0 - - - - - - -
17/01:57pm 18.9 WNW 20 31 999.5 - 0.0 - - - - - - -
17/01:30pm 18.8 WNW 22 31 999.8 - 0.0 - - - - - - -
17/01:02pm 18.6 WNW 26 37 999.4 - 0.0 - - - - - - -
17/01:00pm 18.6 WNW 27 37 999.5 - 0.0 - - - - - - -
17/12:30pm 18.5 WNW 20 32 999.8 - 0.0 - - - - - - -
17/12:00pm 18.6 WNW 23 29 1000.2 - 0.0 - - - - - - -
17/11:30am 18.2 WNW 26 33 1000.6 - 0.0 - - - - - - -
17/11:00am 18.2 WNW 21 28 1001.6 - 0.0 - - - - - - -
17/10:30am 17.8 WNW 22 31 1001.8 - 0.0 - - - - - - -
17/10:11am 17.7 WNW 20 30 1002.2 - 0.0 - - - - - - -
17/10:00am 17.5 WNW 19 26 1002.2 - 0.0 - - - - - - -
17/09:30am 17.3 WNW 17 25 1003.1 - 0.0 - - - - - - -
17/09:00am 17.1 WNW 15 18 1003.3 - 0.0 - - - - - - -
17/08:30am 16.8 W 12 19 1003.5 - 0.0 - - - - - - -
17/08:00am 16.5 WNW 8 12 1003.8 - 0.0 - - - - - - -
17/07:30am 15.6 WNW 8 11 1003.4 - 0.0 - - - - - - -
17/07:00am 15.0 W 10 14 1003.2 - 0.0 - - - - - - -

Other Formats:

Comma delimited format used in spreadsheet applications
http://www.bom.gov.au/fwo/IDN60701/IDN60701.94939.axf

JavaScript Object Notation format (JSON) in row-major order
http://www.bom.gov.au/fwo/IDN60701/IDN60701.94939.json